Time;durP1;ratioP1;P1;durP2;ratioP2;P2;SDS_P1;SDS_P2;PMS_P1;PMS_P2;Temp;Humidity;BMP_temperature;BMP_pressure;BME280_temperature;BME280_humidity;BME280_pressure;Samples;Min_cycle;Max_cycle;Signal;HPM_P1;HPM_P2
2021/06/28 00:00:16;;;;;;;6.75;5.55;;;18.70;99.90;;;17.44;92.65;101043.28;3510203;40;102428;-40
2021/06/28 00:02:44;;;;;;;7.05;5.07;;;18.60;99.90;;;17.42;92.92;101044.63;3510272;40;102521;-40
2021/06/28 00:05:16;;;;;;;6.55;4.82;;;18.60;99.90;;;17.39;92.76;101040.47;3510104;40;102360;-40
2021/06/28 00:07:45;;;;;;;6.95;5.15;;;18.60;99.90;;;17.34;92.75;101038.47;3510426;40;102409;-41
2021/06/28 00:10:26;;;;;;;6.63;5.28;;;18.60;99.90;;;17.36;92.96;101029.91;3510342;40;102373;-40
2021/06/28 00:12:57;;;;;;;7.45;5.25;;;18.60;99.90;;;17.35;92.91;101034.63;3510053;40;102269;-41
2021/06/28 00:15:31;;;;;;;6.75;4.95;;;18.60;99.90;;;17.31;92.92;101027.94;3509908;40;102527;-41
2021/06/28 00:17:58;;;;;;;6.72;4.93;;;18.60;99.90;;;17.25;93.08;101028.97;3510006;40;102172;-41
2021/06/28 00:20:26;;;;;;;7.40;5.10;;;18.50;99.90;;;17.24;93.22;101033.63;3510076;40;102399;-42
2021/06/28 00:22:54;;;;;;;6.35;4.82;;;18.50;99.90;;;17.20;93.06;101029.72;3509958;40;102344;-40
2021/06/28 00:25:22;;;;;;;6.13;5.05;;;18.50;99.90;;;17.18;93.21;101031.88;3509972;40;102157;-40
2021/06/28 00:27:50;;;;;;;6.15;5.03;;;18.50;99.90;;;17.18;93.13;101031.88;3510223;40;104171;-40
2021/06/28 00:30:29;;;;;;;7.25;5.07;;;18.40;99.90;;;17.19;93.68;101028.03;3510361;40;102381;-40
2021/06/28 00:32:57;;;;;;;6.03;4.95;;;18.40;99.90;;;17.17;94.17;101021.09;3510702;40;102268;-41
2021/06/28 00:35:26;;;;;;;6.28;4.97;;;18.40;99.90;;;17.22;94.18;101015.66;3509815;40;102410;-42
2021/06/28 00:37:54;;;;;;;7.38;4.97;;;18.40;99.90;;;17.22;94.26;101012.91;3510335;40;102282;-40
2021/06/28 00:40:22;;;;;;;7.18;5.13;;;18.40;99.90;;;17.22;94.40;101012.91;3510335;40;102364;-40
2021/06/28 00:42:50;;;;;;;6.38;5.05;;;18.40;99.90;;;17.19;94.33;101007.88;3510413;40;102303;-40
2021/06/28 00:45:25;;;;;;;8.00;5.65;;;18.40;99.90;;;17.14;94.07;101011.41;3510287;40;102344;-41
2021/06/28 00:47:59;;;;;;;7.50;5.40;;;18.40;99.90;;;17.08;93.64;101005.00;3509655;40;102265;-40
2021/06/28 00:50:35;;;;;;;8.00;5.43;;;18.40;99.90;;;17.04;92.85;101003.81;3642293;22;103133;-42
2021/06/28 00:53:12;;;;;;;7.68;5.43;;;18.30;99.90;;;16.99;92.52;100997.41;3525763;39;102762;-42
2021/06/28 00:55:43;;;;;;;6.33;5.00;;;18.30;99.90;;;16.92;92.31;101000.28;3529259;39;102485;-41
2021/06/28 00:58:11;;;;;;;7.00;5.22;;;18.20;99.90;;;16.85;92.03;101002.38;3529172;39;103006;-43
2021/06/28 01:00:40;;;;;;;8.13;5.50;;;18.10;99.90;;;16.79;91.98;100993.19;3527463;39;102990;-42
2021/06/28 01:03:11;;;;;;;7.65;5.50;;;18.10;99.90;;;16.74;91.86;100995.84;3520117;39;103311;-42
2021/06/28 01:05:41;;;;;;;7.40;5.13;;;18.00;99.90;;;16.67;91.77;100991.34;3519711;39;102410;-43
2021/06/28 01:08:10;;;;;;;6.65;4.97;;;18.00;99.90;;;16.62;91.40;100990.41;3519742;39;102165;-41
2021/06/28 01:10:38;;;;;;;6.80;5.00;;;17.90;99.90;;;16.52;91.42;100983.66;3519034;39;102645;-41
2021/06/28 01:13:07;;;;;;;6.80;4.65;;;17.90;99.90;;;16.48;91.50;100985.25;3519512;39;102305;-41
2021/06/28 01:15:36;;;;;;;7.60;5.15;;;17.80;99.90;;;16.39;91.46;100984.81;3519585;39;102364;-41
2021/06/28 01:18:05;;;;;;;8.05;5.30;;;17.80;99.90;;;16.38;91.19;100994.16;3520032;39;102190;-43
2021/06/28 01:20:35;;;;;;;7.80;5.05;;;17.70;99.90;;;16.36;91.45;100993.56;3519418;39;102415;-43
2021/06/28 01:23:22;;;;;;;8.50;5.22;;;17.70;99.90;;;16.30;91.57;101002.78;3519709;40;104164;-42
2021/06/28 01:26:03;;;;;;;10.25;5.18;;;17.60;99.90;;;16.26;91.42;100998.88;3519332;40;102615;-43
2021/06/28 01:28:31;;;;;;;7.43;5.05;;;17.60;99.90;;;16.23;91.17;100997.47;3519573;40;105279;-41
2021/06/28 01:31:00;;;;;;;6.03;4.40;;;17.50;99.90;;;16.18;91.19;100993.78;3519272;40;102506;-41
2021/06/28 01:33:29;;;;;;;6.40;4.95;;;17.50;99.90;;;16.13;91.43;100997.25;3519514;40;102680;-42
2021/06/28 01:35:58;;;;;;;8.70;5.15;;;17.50;99.90;;;16.08;91.59;100988.91;3519237;40;102409;-41
2021/06/28 01:38:26;;;;;;;7.57;5.30;;;17.40;99.90;;;16.06;91.77;101002.06;3519083;39;103243;-41
2021/06/28 01:40:54;;;;;;;7.30;4.75;;;17.40;99.90;;;15.99;92.00;100991.22;3519293;40;102681;-42
2021/06/28 01:43:25;;;;;;;7.82;5.15;;;17.30;99.90;;;15.98;91.88;101005.22;3519576;40;104125;-41
2021/06/28 01:45:55;;;;;;;6.63;5.05;;;17.30;99.90;;;15.91;91.74;101003.47;3518178;40;103292;-41
2021/06/28 01:48:22;;;;;;;5.68;4.60;;;17.20;99.90;;;15.85;91.81;101001.63;3519014;40;102528;-41
2021/06/28 01:50:52;;;;;;;8.32;4.70;;;17.20;99.90;;;15.81;91.77;101005.94;3518770;40;102496;-41
2021/06/28 01:53:19;;;;;;;7.22;5.03;;;17.10;99.90;;;15.75;91.78;101006.94;3519272;40;102181;-42
2021/06/28 01:55:47;;;;;;;7.10;5.38;;;17.10;99.90;;;15.73;92.05;101003.59;3519267;40;102491;-42
2021/06/28 01:58:16;;;;;;;8.02;4.90;;;17.10;99.90;;;15.69;92.10;101011.47;3519073;40;103629;-41
2021/06/28 02:00:54;;;;;;;7.63;4.70;;;17.00;99.90;;;15.67;92.11;101013.63;3518719;40;102042;-41
2021/06/28 02:03:24;;;;;;;7.25;4.68;;;17.00;99.90;;;15.64;92.09;101014.13;3519141;40;104099;-41
2021/06/28 02:05:58;;;;;;;7.70;5.28;;;17.00;99.90;;;15.63;92.33;101012.44;3519323;40;102050;-41
2021/06/28 02:08:32;;;;;;;6.80;5.20;;;16.90;99.90;;;15.60;92.50;101008.25;3519210;39;103176;-43
2021/06/28 02:11:04;;;;;;;6.63;4.68;;;16.90;99.90;;;15.60;92.53;101010.19;3518880;40;102395;-41
2021/06/28 02:13:36;;;;;;;9.15;5.15;;;16.90;99.90;;;15.57;92.60;101011.50;3518886;39;102387;-41
2021/06/28 02:16:05;;;;;;;8.05;5.43;;;16.90;99.90;;;15.54;92.54;101003.72;3519368;40;102479;-42
2021/06/28 02:18:34;;;;;;;7.10;5.10;;;16.90;99.90;;;15.51;92.65;101010.53;3518745;39;102354;-41
2021/06/28 02:21:02;;;;;;;6.90;5.13;;;16.80;99.90;;;15.50;92.65;101005.31;3518884;40;102753;-42
2021/06/28 02:23:38;;;;;;;8.45;5.25;;;16.80;99.90;;;15.52;92.73;101009.50;3520446;39;102123;-42
2021/06/28 02:26:10;;;;;;;7.60;5.60;;;16.80;99.90;;;15.54;93.46;101006.47;3519858;39;102490;-43
2021/06/28 02:28:42;;;;;;;8.77;5.57;;;16.80;99.90;;;15.52;93.59;101009.50;3520745;39;103245;-41
2021/06/28 02:31:13;;;;;;;6.50;5.25;;;16.80;99.90;;;15.50;93.20;101010.78;3519926;39;102589;-42
2021/06/28 02:33:42;;;;;;;7.18;5.20;;;16.80;99.90;;;15.46;93.26;101006.88;3519974;40;102446;-42
2021/06/28 02:36:10;;;;;;;6.85;4.97;;;16.80;99.90;;;15.43;93.17;101015.59;3519991;39;102323;-42
2021/06/28 02:38:39;;;;;;;7.68;5.85;;;16.80;99.90;;;15.34;93.01;101004.13;3520020;39;103151;-42
2021/06/28 02:41:09;;;;;;;6.80;5.28;;;16.70;99.90;;;15.37;93.19;101018.19;3520008;40;102333;-41
2021/06/28 02:43:37;;;;;;;7.22;5.43;;;16.70;99.90;;;15.34;93.00;101013.19;3520332;40;104119;-43
2021/06/28 02:46:06;;;;;;;8.32;5.43;;;16.70;99.90;;;15.33;93.44;101010.69;3519949;39;102134;-41
2021/06/28 02:48:34;;;;;;;8.07;5.20;;;16.60;99.90;;;15.29;93.61;101012.25;3520355;39;102279;-43
2021/06/28 02:51:07;;;;;;;6.57;4.88;;;16.70;99.90;;;15.27;93.45;101019.91;3520027;39;102659;-41
2021/06/28 02:53:36;;;;;;;7.07;5.07;;;16.60;99.90;;;15.28;93.40;101018.84;3519841;40;102290;-40
2021/06/28 02:56:13;;;;;;;8.25;5.00;;;16.60;99.90;;;15.23;93.26;101012.13;3519874;40;103692;-41
2021/06/28 02:58:55;;;;;;;8.13;5.45;;;16.60;99.90;;;15.23;93.43;100998.38;3520203;39;103276;-41
2021/06/28 03:01:27;;;;;;;9.10;5.45;;;16.50;99.90;;;15.25;93.59;101003.66;3520123;39;102237;-41
2021/06/28 03:03:55;;;;;;;6.65;4.70;;;16.60;99.90;;;15.22;93.71;100998.63;3519750;40;102263;-43
2021/06/28 03:06:23;;;;;;;9.57;5.90;;;16.60;99.90;;;15.17;93.77;100998.53;3519967;40;103315;-43
2021/06/28 03:08:51;;;;;;;;;;;16.50;99.90;;;15.14;93.67;100993.50;3520791;40;103125;-41
2021/06/28 03:11:20;;;;;;;6.35;4.93;;;16.50;99.90;;;15.09;93.53;101000.53;3520278;39;102460;-41
2021/06/28 03:13:50;;;;;;;8.00;5.05;;;16.50;99.90;;;15.06;93.20;100994.69;3519968;40;102283;-41
2021/06/28 03:16:18;;;;;;;6.85;4.93;;;16.40;99.90;;;15.03;93.30;101001.47;3520018;40;102415;-42
2021/06/28 03:18:46;;;;;;;7.07;5.30;;;16.40;99.90;;;14.99;93.08;100994.81;3520336;39;103081;-41
2021/06/28 03:21:13;;;;;;;6.65;4.82;;;16.30;99.90;;;14.97;93.02;101002.44;3520101;40;102214;-42
2021/06/28 03:23:43;;;;;;;6.88;4.93;;;16.30;99.90;;;14.96;93.38;101007.09;3520021;39;102323;-41
2021/06/28 03:26:12;;;;;;;7.55;5.15;;;16.30;99.90;;;14.98;93.49;101009.59;3519894;39;102472;-43
2021/06/28 03:28:39;;;;;;;7.57;5.18;;;16.30;99.90;;;14.99;93.75;101003.03;3520124;39;103273;-41
2021/06/28 03:31:09;;;;;;;6.97;4.78;;;16.30;99.90;;;14.98;94.26;100998.63;3520086;40;102338;-42
2021/06/28 03:33:37;;;;;;;7.85;5.43;;;16.30;99.90;;;14.96;93.95;101006.25;3519541;39;103108;-41
2021/06/28 03:36:06;;;;;;;8.60;4.75;;;16.30;99.90;;;14.92;93.75;100999.56;3520070;40;103270;-41
2021/06/28 03:38:34;;;;;;;5.80;4.60;;;16.20;99.90;;;14.92;93.90;100997.66;3520037;39;102296;-41
2021/06/28 03:41:01;;;;;;;8.50;5.28;;;16.30;99.90;;;14.96;93.87;101000.78;3519986;39;102612;-41
2021/06/28 03:43:29;;;;;;;7.50;5.32;;;16.30;99.90;;;15.02;94.46;100994.31;3519641;39;102276;-43
2021/06/28 03:45:56;;;;;;;9.27;6.35;;;16.30;99.90;;;15.06;94.60;100998.25;3519813;40;103632;-41
2021/06/28 03:48:23;;;;;;;8.60;5.75;;;16.40;99.90;;;15.09;94.97;101011.50;3520098;39;102299;-42
2021/06/28 03:50:53;;;;;;;7.45;5.35;;;16.40;99.90;;;15.08;94.53;101009.84;3519554;39;102473;-41
2021/06/28 03:53:20;;;;;;;7.57;5.90;;;16.40;99.90;;;15.08;95.03;101015.34;3519965;39;102341;-41
2021/06/28 03:55:48;;;;;;;8.30;5.85;;;16.40;99.90;;;15.18;95.42;101024.91;3519750;39;102495;-42
2021/06/28 03:58:16;;;;;;;7.68;5.45;;;16.40;99.90;;;15.19;95.53;101024.66;3519793;40;102322;-41
2021/06/28 04:00:45;;;;;;;9.23;5.88;;;16.50;99.90;;;15.22;95.39;101012.38;3519965;39;102388;-41
2021/06/28 04:03:15;;;;;;;9.45;5.72;;;16.50;99.90;;;15.19;95.03;101018.34;3519954;40;103231;-41
2021/06/28 04:05:42;;;;;;;6.60;5.13;;;16.50;99.90;;;15.23;95.29;101011.28;3520073;39;102181;-41
2021/06/28 04:08:09;;;;;;;7.85;5.88;;;16.50;99.90;;;15.28;94.90;101019.66;3519532;40;103456;-41
2021/06/28 04:10:37;;;;;;;7.63;5.70;;;16.50;99.90;;;15.30;94.97;101022.19;3519387;39;102299;-41
2021/06/28 04:13:05;;;;;;;8.27;5.80;;;16.50;99.90;;;15.30;94.55;101020.25;3520228;39;102336;-41
2021/06/28 04:15:32;;;;;;;12.52;6.07;;;16.60;99.90;;;15.27;94.55;101017.97;3519771;39;103517;-43
2021/06/28 04:18:01;;;;;;;7.93;5.47;;;16.60;99.90;;;15.31;94.52;101019.16;3519596;39;102359;-41
2021/06/28 04:20:29;;;;;;;7.90;5.70;;;16.60;99.90;;;15.34;94.53;101024.19;3519923;39;102935;-41
2021/06/28 04:22:56;;;;;;;8.32;5.32;;;16.60;99.90;;;15.38;94.49;101022.66;3519661;39;102186;-41
2021/06/28 04:25:24;;;;;;;7.90;5.20;;;16.60;99.90;;;15.43;94.58;101021.91;3520059;40;102256;-42
2021/06/28 04:27:52;;;;;;;6.72;5.18;;;16.70;99.90;;;15.49;94.32;101025.63;3519862;40;102278;-41
2021/06/28 04:30:21;;;;;;;8.80;5.97;;;16.70;99.90;;;15.52;94.31;101020.50;3520031;39;102646;-41
2021/06/28 04:32:50;;;;;;;8.82;5.85;;;16.80;99.90;;;15.62;94.63;101019.84;3520007;39;102527;-41
2021/06/28 04:35:24;;;;;;;8.05;5.95;;;16.80;99.90;;;15.68;94.74;101029.06;3519524;39;102317;-42
2021/06/28 04:37:55;;;;;;;9.40;6.50;;;16.90;99.90;;;15.75;94.63;101024.25;3519880;39;102367;-41
2021/06/28 04:40:30;;;;;;;8.65;6.38;;;16.90;99.90;;;15.89;94.66;101029.53;3519724;40;102408;-43
2021/06/28 04:42:59;;;;;;;10.73;7.20;;;17.00;99.90;;;16.01;94.79;101015.75;3519996;39;102296;-42
2021/06/28 04:45:28;;;;;;;9.38;6.75;;;17.10;99.90;;;16.25;94.86;101020.06;3519125;39;102465;-42
2021/06/28 04:47:57;;;;;;;9.93;6.60;;;17.30;99.90;;;16.46;94.29;101017.72;3519634;39;103239;-41
2021/06/28 04:50:25;;;;;;;10.48;6.72;;;17.50;99.90;;;16.70;93.81;101014.78;3519483;40;102352;-41
2021/06/28 04:52:55;;;;;;;11.73;7.22;;;17.70;99.90;;;16.86;93.46;101020.56;3519467;40;104125;-41
2021/06/28 04:55:25;;;;;;;11.15;7.88;;;17.80;99.90;;;16.95;93.32;101019.91;3519311;39;102386;-41
2021/06/28 04:57:55;;;;;;;8.98;7.13;;;18.00;99.90;;;17.21;93.55;101011.22;3519784;39;103308;-41
2021/06/28 05:00:25;;;;;;;11.45;7.63;;;18.20;99.90;;;17.48;93.86;101005.84;3519825;40;102403;-42
2021/06/28 05:02:53;;;;;;;11.63;8.30;;;18.40;99.90;;;17.74;93.49;100991.53;3519791;40;103343;-41
2021/06/28 05:05:20;;;;;;;10.65;8.63;;;18.60;99.90;;;17.96;92.79;100999.81;3518341;40;102466;-41
2021/06/28 05:07:48;;;;;;;;;;;18.80;99.90;;;18.17;91.19;100995.38;3520661;39;102438;-41
2021/06/28 05:10:16;;;;;;;12.85;8.77;;;19.00;99.90;;;18.36;90.52;100990.34;3519998;39;102070;-43
2021/06/28 05:12:44;;;;;;;;;;;19.20;99.90;;;18.56;88.96;100991.63;3520047;39;102423;-41
2021/06/28 05:15:13;;;;;;;9.70;8.25;;;19.40;99.90;;;18.78;89.70;100997.06;3520170;39;102412;-42
2021/06/28 05:17:42;;;;;;;12.48;8.98;;;19.60;99.90;;;18.96;88.79;100986.69;3519299;39;102721;-43
2021/06/28 05:20:12;;;;;;;12.27;9.30;;;19.80;99.90;;;19.17;87.78;100981.34;3519358;39;102405;-41
2021/06/28 05:22:41;;;;;;;13.75;8.90;;;20.00;99.90;;;19.34;86.10;100986.69;3519848;39;103412;-42
2021/06/28 05:25:10;;;;;;;14.30;10.20;;;20.10;99.90;;;19.54;85.32;100988.75;3519351;40;102527;-44
2021/06/28 05:27:38;;;;;;;12.90;9.68;;;20.30;99.90;;;19.68;84.46;100989.94;3519237;40;104135;-42
2021/06/28 05:30:10;;;;;;;11.75;9.20;;;20.50;99.90;;;19.81;85.33;100985.81;3518283;40;102535;-42
2021/06/28 05:32:38;;;;;;;12.13;9.50;;;20.60;99.90;;;19.99;84.91;100989.22;3519842;39;102191;-41
2021/06/28 05:35:11;;;;;;;13.82;8.90;;;20.80;99.90;;;20.22;83.86;100985.13;3519415;39;102137;-42
2021/06/28 05:37:39;;;;;;;12.88;9.52;;;21.00;99.90;;;20.38;83.44;100985.16;3519455;40;102210;-42
2021/06/28 05:40:09;;;;;;;;;;;21.10;99.90;;;20.53;82.08;100979.63;3520246;39;102534;-42
2021/06/28 05:42:38;;;;;;;14.68;10.02;;;21.30;99.90;;;20.58;79.46;100978.81;3519944;39;103287;-42
2021/06/28 05:45:08;;;;;;;15.13;10.63;;;21.40;99.90;;;20.60;80.79;100979.38;3519360;40;102231;-42
2021/06/28 05:47:35;;;;;;;13.32;10.50;;;21.50;99.90;;;20.58;78.51;100980.75;3519184;40;103332;-42
2021/06/28 05:50:06;;;;;;;13.85;10.25;;;21.50;99.90;;;20.57;78.11;100982.69;3519349;39;102505;-42
2021/06/28 05:52:36;;;;;;;21.73;11.38;;;21.50;99.90;;;20.57;79.21;100981.84;3519058;40;102376;-43
2021/06/28 05:55:04;;;;;;;13.90;9.98;;;21.40;99.90;;;20.64;79.79;100982.41;3519433;40;102235;-41
2021/06/28 05:57:32;;;;;;;13.90;9.73;;;21.50;99.90;;;20.67;79.66;100976.31;3520172;40;102350;-41
2021/06/28 05:59:59;;;;;;;12.55;10.18;;;21.50;99.90;;;20.77;77.92;100975.47;3520423;39;102446;-41
2021/06/28 06:02:27;;;;;;;13.10;9.95;;;21.60;99.90;;;20.86;78.22;100982.16;3520083;39;102217;-42
2021/06/28 06:04:54;;;;;;;11.43;9.77;;;21.70;99.90;;;21.07;77.29;100979.34;3520723;39;102499;-42
2021/06/28 06:07:22;;;;;;;13.25;9.40;;;21.80;99.90;;;21.23;75.97;100977.41;3520134;39;102264;-42
2021/06/28 06:09:49;;;;;;;12.20;9.60;;;22.00;99.90;;;21.38;74.15;100988.44;3520683;39;102447;-42
2021/06/28 06:12:17;;;;;;;13.88;9.05;;;22.10;99.90;;;21.51;75.45;100983.44;3520079;39;103739;-43
2021/06/28 06:14:44;;;;;;;14.25;9.13;;;22.20;99.90;;;21.63;75.78;100986.69;3520108;40;102145;-42
2021/06/28 06:17:12;;;;;;;13.43;9.48;;;22.30;99.90;;;21.53;74.83;100992.31;3520301;39;102304;-42
2021/06/28 06:19:41;;;;;;;12.63;9.82;;;22.30;99.90;;;21.40;75.07;100999.28;3520486;39;102460;-42
2021/06/28 06:22:09;;;;;;;14.07;10.18;;;22.30;99.90;;;21.54;76.36;100993.97;3520356;40;104124;-42
2021/06/28 06:24:36;;;;;;;13.73;9.35;;;22.30;99.90;;;21.59;76.15;100993.94;3519908;39;102419;-42
2021/06/28 06:27:06;;;;;;;11.55;9.18;;;22.40;99.90;;;21.68;75.32;100989.47;3520211;39;103226;-42
2021/06/28 06:29:35;;;;;;;11.40;9.35;;;22.50;99.90;;;21.79;75.69;100989.47;3520714;39;102994;-42
2021/06/28 06:32:04;;;;;;;12.63;9.50;;;22.60;99.90;;;21.89;74.63;100994.94;3520454;40;102244;-42
2021/06/28 06:34:32;;;;;;;14.30;9.45;;;22.60;99.90;;;21.92;73.26;100988.81;3520468;40;102490;-41
2021/06/28 06:36:59;;;;;;;10.85;8.70;;;22.70;99.90;;;22.10;74.67;100984.56;3520965;39;102220;-42
2021/06/28 06:39:27;;;;;;;12.38;9.00;;;22.80;99.90;;;21.97;71.94;100990.75;3520110;39;102445;-42
2021/06/28 06:41:54;;;;;;;;;;;22.80;99.90;;;21.83;72.47;100988.59;3520640;40;102423;-42
2021/06/28 06:44:21;;;;;;;11.32;8.88;;;22.70;99.90;;;21.70;72.33;100981.69;3520265;39;102650;-42
2021/06/28 06:46:49;;;;;;;11.95;8.25;;;22.60;99.90;;;21.55;73.71;100990.88;3520514;39;102146;-42
2021/06/28 06:49:16;;;;;;;11.52;8.45;;;22.50;99.90;;;21.45;74.21;100996.47;3520081;39;102932;-41
2021/06/28 06:51:45;;;;;;;11.43;8.25;;;22.40;99.90;;;21.47;75.64;101001.72;3646784;22;105251;-42
2021/06/28 06:54:12;;;;;;;11.73;8.30;;;22.40;99.90;;;21.44;75.18;100994.81;3506254;40;103020;-42
2021/06/28 06:56:40;;;;;;;15.27;9.27;;;22.40;99.90;;;21.41;75.25;100990.66;3510429;40;103034;-41
2021/06/28 06:59:07;;;;;;;;;;;22.30;99.90;;;21.46;75.14;101003.69;3511288;40;102399;-41
2021/06/28 07:01:36;;;;;;;11.70;8.93;;;22.30;99.90;;;21.51;75.30;100997.31;3510704;40;102311;-44
2021/06/28 07:04:04;;;;;;;11.38;9.05;;;22.40;99.90;;;21.58;76.67;101010.84;3510656;40;102324;-40
2021/06/28 07:06:31;;;;;;;13.27;9.90;;;22.40;99.90;;;21.58;75.52;101008.94;3510816;40;102159;-41
2021/06/28 07:08:59;;;;;;;11.95;8.70;;;22.40;99.90;;;21.69;75.86;101012.53;3511196;40;102207;-42
2021/06/28 07:11:27;;;;;;;11.68;8.98;;;22.50;99.90;;;21.82;75.07;101008.31;3510356;40;103186;-41
2021/06/28 07:13:54;;;;;;;11.65;9.20;;;22.60;99.90;;;22.27;74.30;100997.25;3510409;40;102101;-40
2021/06/28 07:16:30;;;;;;;12.85;9.32;;;22.90;99.90;;;22.78;73.51;100996.03;3510662;40;103350;-46
2021/06/28 07:19:00;;;;;;;12.27;9.43;;;23.30;99.90;;;23.02;72.64;100997.25;3510664;40;102505;-41
2021/06/28 07:21:29;;;;;;;13.48;9.68;;;23.50;99.90;;;23.18;67.49;101000.72;3510550;40;102482;-41
2021/06/28 07:23:57;;;;;;;12.82;9.50;;;23.80;99.90;;;23.50;67.05;101000.13;3510668;40;103312;-44
2021/06/28 07:26:25;;;;;;;13.70;9.65;;;24.00;99.90;;;23.52;66.09;101009.00;3510564;40;102259;-41
2021/06/28 07:28:54;;;;;;;12.77;9.45;;;24.10;99.90;;;23.61;67.39;101000.81;3510696;40;102366;-41
2021/06/28 07:31:23;;;;;;;14.23;10.18;;;24.20;99.90;;;23.70;67.16;101009.34;3510706;40;102209;-41
2021/06/28 07:33:50;;;;;;;11.63;8.70;;;24.30;99.90;;;23.75;65.91;101008.44;3509458;40;102383;-41
2021/06/28 07:36:18;;;;;;;11.77;8.63;;;24.40;99.90;;;23.87;65.99;101022.78;3510672;40;103299;-40
2021/06/28 07:38:45;;;;;;;11.80;8.48;;;24.50;99.90;;;23.93;67.52;101015.19;3510198;40;102536;-41
2021/06/28 07:41:13;;;;;;;11.85;8.70;;;24.60;99.90;;;23.79;64.79;101003.94;3510523;40;102312;-40
2021/06/28 07:43:40;;;;;;;10.13;7.68;;;24.60;99.90;;;23.78;65.54;101002.28;3510738;40;102816;-41
2021/06/28 07:46:07;;;;;;;10.27;7.93;;;24.60;99.90;;;23.77;65.59;101006.19;3510381;40;102293;-40
2021/06/28 07:48:35;;;;;;;11.07;8.40;;;24.60;99.90;;;23.90;65.93;101005.47;3510519;40;102291;-41
2021/06/28 07:51:03;;;;;;;;;;;24.70;99.90;;;24.02;66.20;101001.44;3510785;40;103028;-42
2021/06/28 07:53:30;;;;;;;12.15;8.10;;;24.70;99.90;;;24.02;64.96;101004.22;3510382;40;102373;-42
2021/06/28 07:56:13;;;;;;;10.02;7.75;;;24.80;99.90;;;23.89;64.90;101009.41;3510189;40;103789;-41
2021/06/28 07:58:45;;;;;;;10.45;8.13;;;24.70;99.90;;;23.82;65.34;100997.75;3510834;40;102517;-41
2021/06/28 08:01:14;;;;;;;10.93;8.20;;;24.70;99.90;;;23.82;67.33;101000.56;3510635;40;102427;-41
2021/06/28 08:03:45;;;;;;;12.40;8.57;;;24.60;99.90;;;23.81;67.16;101007.25;3510566;40;102439;-41
2021/06/28 08:06:19;;;;;;;10.95;8.98;;;24.60;99.90;;;23.79;64.58;101003.94;3510577;40;102306;-40
2021/06/28 08:08:50;;;;;;;12.50;8.15;;;24.50;99.90;;;23.87;66.04;101005.22;3510810;40;102387;-41
2021/06/28 08:11:21;;;;;;;11.82;8.68;;;24.60;99.90;;;24.16;63.92;101007.09;3510237;40;104368;-44
2021/06/28 08:13:53;;;;;;;12.20;8.38;;;24.70;99.90;;;24.42;62.51;101002.00;3510522;40;102302;-41
2021/06/28 08:16:22;;;;;;;10.07;8.00;;;;;;;24.81;65.13;100997.22;3510499;40;103288;-41
2021/06/28 08:18:52;;;;;;;9.82;7.10;;;;;;;25.08;60.71;100996.44;3509322;40;102399;-40
2021/06/28 08:21:35;;;;;;;10.00;8.02;;;;;;;25.01;58.52;100996.03;3510418;40;103201;-41
2021/06/28 08:24:05;;;;;;;9.18;7.65;;;;;;;25.23;60.69;100983.34;3510310;40;102804;-41
2021/06/28 08:26:34;;;;;;;11.38;7.78;;;;;;;25.28;57.34;100974.88;3510181;40;102713;-41
2021/06/28 08:29:04;;;;;;;11.07;7.88;;;;;;;25.28;56.39;100975.69;3510291;40;102533;-41
2021/06/28 08:31:35;;;;;;;8.85;7.25;;;;;;;25.46;58.26;100969.47;3510082;40;102353;-41
2021/06/28 08:34:10;;;;;;;9.13;7.00;;;;;;;25.59;59.09;100974.28;3510047;40;102384;-41
2021/06/28 08:36:39;;;;;;;7.53;6.00;;;;;;;25.77;58.04;100975.28;3510330;40;103148;-41
2021/06/28 08:39:07;;;;;;;8.13;6.55;;;;;;;25.70;58.91;100969.31;3509965;40;103612;-40
2021/06/28 08:41:37;;;;;;;10.98;6.28;;;;;;;25.55;56.30;100965.69;3510631;40;102208;-40
2021/06/28 08:44:08;;;;;;;8.65;6.60;;;;;;;25.42;58.46;100972.09;3510126;40;102465;-41
2021/06/28 08:46:37;;;;;;;8.15;6.30;;;;;;;25.44;61.86;100975.38;3510728;40;102323;-44
2021/06/28 08:49:06;;;;;;;7.85;6.20;;;;;;;25.47;60.12;100960.03;3510994;40;102146;-41
2021/06/28 08:51:35;;;;;;;8.68;6.43;;;;;;;25.43;60.60;100956.97;3510738;40;103092;-42
2021/06/28 08:54:07;;;;;;;7.75;6.22;;;;;;;25.39;60.32;100947.56;3509218;40;102449;-41
2021/06/28 08:56:37;;;;;;;8.55;6.32;;;;;;;25.28;59.20;100955.31;3510400;40;103814;-41
2021/06/28 08:59:06;;;;;;;7.60;6.13;;;;;;;25.20;59.99;100970.00;3510479;40;102402;-43
2021/06/28 09:01:36;;;;;;;8.93;6.47;;;;;;;25.23;60.47;100986.94;3510703;40;103217;-41
2021/06/28 09:04:06;;;;;;;8.20;6.68;;;;;;;25.46;62.45;101000.19;3509856;40;103309;-41
2021/06/28 09:06:34;;;;;;;8.63;6.63;;;;;;;25.69;61.06;101004.78;3510091;40;102203;-41
2021/06/28 09:09:11;;;;;;;8.07;6.80;;;;;;;25.96;60.17;101005.88;3510289;40;102273;-41
2021/06/28 09:11:51;;;;;;;10.73;7.60;;;;;;;26.31;60.76;101011.00;3509803;40;102474;-42
2021/06/28 09:14:24;;;;;;;9.23;7.38;;;;;;;26.54;59.64;101017.47;3509800;40;102416;-41
2021/06/28 09:16:52;;;;;;;9.18;7.22;;;;;;;26.81;56.71;101017.66;3510106;40;102221;-41
2021/06/28 09:19:23;;;;;;;10.52;6.93;;;;;;;27.09;59.27;101004.38;3510211;40;102337;-40
2021/06/28 09:21:53;;;;;;;7.53;6.00;;;;;;;27.03;52.08;101004.81;3510241;40;102180;-41
2021/06/28 09:24:30;;;;;;;6.80;5.97;;;;;;;27.21;54.62;101008.53;3509708;40;102329;-41
2021/06/28 09:27:22;;;;;;;8.57;6.03;;;;;;;27.42;51.63;101005.97;3509887;40;102340;-43
2021/06/28 09:29:54;;;;;;;8.40;6.22;;;;;;;27.47;51.36;101011.47;3503468;40;102251;-42
2021/06/28 09:32:25;;;;;;;6.97;5.50;;;;;;;27.47;50.93;101013.44;3511212;40;102258;-41
2021/06/28 09:34:59;;;;;;;7.93;5.82;;;;;;;27.60;52.95;101009.72;3510927;40;102415;-41
2021/06/28 09:37:27;;;;;;;7.38;5.80;;;;;;;27.64;51.36;101007.94;3511381;40;103495;-40
2021/06/28 09:40:00;;;;;;;6.03;5.32;;;;;;;27.60;52.84;101014.50;3511559;40;102446;-41
2021/06/28 09:42:29;;;;;;;6.68;5.30;;;;;;;27.55;52.91;101016.28;3511202;40;102405;-43
2021/06/28 09:45:15;;;;;;;8.63;5.88;;;;;;;27.50;54.86;101019.22;3511145;40;102938;-44
2021/06/28 09:47:43;;;;;;;6.80;5.18;;;;;;;27.56;52.21;101015.16;3511110;40;103242;-43
2021/06/28 09:50:23;;;;;;;7.90;5.70;;;;;;;27.76;50.87;101012.06;3511544;40;102295;-43
2021/06/28 09:52:56;;;;;;;7.53;6.15;;;;;;;27.82;50.61;101010.75;3510760;40;102845;-42
2021/06/28 09:55:39;;;;;;;8.30;6.30;;;;;;;27.66;52.59;101011.22;3511357;40;103310;-41
2021/06/28 09:58:22;;;;;;;7.78;6.10;;;;;;;27.53;53.53;101003.75;3510806;40;103188;-41
2021/06/28 10:00:55;;;;;;;7.70;5.93;;;;;;;27.59;52.69;101010.88;3511084;40;102348;-41
2021/06/28 10:03:38;;;;;;;8.13;6.13;;;;;;;27.56;54.69;101012.34;3510864;40;102189;-41
2021/06/28 10:08:45;;;;;;;8.05;6.65;;;;;;;27.28;53.80;101020.94;3510719;40;102177;-44
2021/06/28 10:11:21;;;;;;;8.63;6.50;;;;;;;27.23;52.90;101025.84;3511245;40;102505;-41
2021/06/28 10:14:04;;;;;;;8.40;6.07;;;;;;;27.17;53.63;101027.94;3511264;40;103486;-42
2021/06/28 10:16:38;;;;;;;7.57;5.35;;;;;;;27.07;54.23;101025.41;3510965;40;102858;-41
2021/06/28 10:19:08;;;;;;;8.02;5.72;;;;;;;27.07;55.06;101015.06;3510934;40;103627;-41
2021/06/28 10:21:38;;;;;;;5.57;4.80;;;;;;;26.90;55.36;101020.53;3511044;40;102366;-41
2021/06/28 10:24:06;;;;;;;6.57;5.30;;;;;;;26.83;53.50;101013.41;3510995;40;102370;-41
2021/06/28 10:26:34;;;;;;;7.22;5.57;;;;;;;26.82;54.00;101022.09;3511340;40;102436;-43
2021/06/28 10:29:03;;;;;;;7.75;5.65;;;;;;;26.69;53.79;101021.03;3511324;40;103167;-44
2021/06/28 10:31:31;;;;;;;8.98;5.88;;;;;;;26.68;55.77;101024.97;3511138;40;102362;-43
2021/06/28 10:34:00;;;;;;;8.02;6.53;;;;;;;26.63;54.90;101022.31;3510658;40;103164;-44